Sydney, Canada
Current Conditions -  °F | °C
As of 10:00 AM on Thursday 23 Oct 2014 (Local Time) from CYQY Reporting Station
Overcast Overcast  
Wind Chill: 52°   Ceiling: 1800
Heat Index: 52°   Visibility: 10mi
Dew Point: 46°   Wind: 16mph
Humidity: 82%   Direction: 80°E
Pressure: 30.24"   Gusts: NA
Location:  46.14°N, 60.2°W
Report Text: CYQY 231300Z 08014KT 10SM FEW012 BKN018 BKN090 OVC190 11/08 A3024 RMK SC2SC4AC1AS1 SLP240
Loading
Personal Weather Stations






























Interactive Weather Map
Tropical Storm Tracking
New forecast layout! Learn more

10-Day Weather Forecast

Advertisements
Track Severe Weather on mobile